sensor_id;sensor_type;location;lat;lon;timestamp;P1;durP1;ratioP1;P2;durP2;ratioP2
65373;SDS011;52070;53.760;9.678;2023-03-14T00:00:31;19.88;;;2.50;;
65373;SDS011;52070;53.760;9.678;2023-03-14T00:02:59;25.17;;;3.35;;
65373;SDS011;52070;53.760;9.678;2023-03-14T00:05:26;24.48;;;3.08;;
65373;SDS011;52070;53.760;9.678;2023-03-14T00:07:53;21.20;;;3.15;;
65373;SDS011;52070;53.760;9.678;2023-03-14T00:10:20;15.45;;;3.10;;
65373;SDS011;52070;53.760;9.678;2023-03-14T00:12:47;23.13;;;3.33;;
65373;SDS011;52070;53.760;9.678;2023-03-14T00:15:14;17.30;;;2.72;;
65373;SDS011;52070;53.760;9.678;2023-03-14T00:17:42;24.20;;;3.67;;
65373;SDS011;52070;53.760;9.678;2023-03-14T00:20:12;21.13;;;2.42;;
65373;SDS011;52070;53.760;9.678;2023-03-14T00:22:39;19.92;;;2.97;;
65373;SDS011;52070;53.760;9.678;2023-03-14T00:25:08;22.90;;;3.17;;
65373;SDS011;52070;53.760;9.678;2023-03-14T00:27:36;18.85;;;3.30;;
65373;SDS011;52070;53.760;9.678;2023-03-14T00:30:03;21.27;;;3.22;;
65373;SDS011;52070;53.760;9.678;2023-03-14T00:32:33;17.25;;;2.63;;
65373;SDS011;52070;53.760;9.678;2023-03-14T00:35:00;16.58;;;3.08;;
65373;SDS011;52070;53.760;9.678;2023-03-14T00:37:29;18.50;;;2.85;;
65373;SDS011;52070;53.760;9.678;2023-03-14T00:39:56;18.33;;;3.22;;
65373;SDS011;52070;53.760;9.678;2023-03-14T00:42:24;20.77;;;3.65;;
65373;SDS011;52070;53.760;9.678;2023-03-14T00:44:51;19.10;;;3.53;;
65373;SDS011;52070;53.760;9.678;2023-03-14T00:47:18;18.42;;;2.78;;
65373;SDS011;52070;53.760;9.678;2023-03-14T00:49:45;17.30;;;2.90;;
65373;SDS011;52070;53.760;9.678;2023-03-14T00:52:12;19.05;;;3.00;;
65373;SDS011;52070;53.760;9.678;2023-03-14T00:54:40;17.85;;;2.92;;
65373;SDS011;52070;53.760;9.678;2023-03-14T00:57:07;13.18;;;2.75;;
65373;SDS011;52070;53.760;9.678;2023-03-14T00:59:34;19.65;;;3.78;;
65373;SDS011;52070;53.760;9.678;2023-03-14T01:02:01;24.05;;;2.95;;
65373;SDS011;52070;53.760;9.678;2023-03-14T01:04:28;16.40;;;2.92;;
65373;SDS011;52070;53.760;9.678;2023-03-14T01:06:56;13.90;;;2.67;;
65373;SDS011;52070;53.760;9.678;2023-03-14T01:09:23;11.90;;;2.40;;
65373;SDS011;52070;53.760;9.678;2023-03-14T01:11:52;10.95;;;3.03;;
65373;SDS011;52070;53.760;9.678;2023-03-14T01:14:19;12.07;;;2.30;;
65373;SDS011;52070;53.760;9.678;2023-03-14T01:16:46;14.50;;;2.65;;
65373;SDS011;52070;53.760;9.678;2023-03-14T01:19:13;15.40;;;2.65;;
65373;SDS011;52070;53.760;9.678;2023-03-14T01:21:40;15.48;;;2.53;;
65373;SDS011;52070;53.760;9.678;2023-03-14T01:24:07;14.40;;;2.75;;
65373;SDS011;52070;53.760;9.678;2023-03-14T01:26:37;18.55;;;3.13;;
65373;SDS011;52070;53.760;9.678;2023-03-14T01:29:06;13.30;;;2.80;;
65373;SDS011;52070;53.760;9.678;2023-03-14T01:31:33;13.23;;;2.35;;
65373;SDS011;52070;53.760;9.678;2023-03-14T01:34:00;15.38;;;2.60;;
65373;SDS011;52070;53.760;9.678;2023-03-14T01:36:27;14.32;;;2.78;;
65373;SDS011;52070;53.760;9.678;2023-03-14T01:38:54;17.35;;;2.35;;
65373;SDS011;52070;53.760;9.678;2023-03-14T01:41:22;16.52;;;2.28;;
65373;SDS011;52070;53.760;9.678;2023-03-14T01:43:51;18.43;;;2.70;;
65373;SDS011;52070;53.760;9.678;2023-03-14T01:46:24;15.27;;;3.00;;
65373;SDS011;52070;53.760;9.678;2023-03-14T01:48:59;18.80;;;2.40;;
65373;SDS011;52070;53.760;9.678;2023-03-14T01:51:31;16.40;;;2.45;;
65373;SDS011;52070;53.760;9.678;2023-03-14T01:54:05;16.27;;;2.63;;
65373;SDS011;52070;53.760;9.678;2023-03-14T01:56:36;13.27;;;2.92;;
65373;SDS011;52070;53.760;9.678;2023-03-14T01:59:06;14.15;;;2.75;;
65373;SDS011;52070;53.760;9.678;2023-03-14T02:01:36;10.98;;;2.15;;
65373;SDS011;52070;53.760;9.678;2023-03-14T02:04:05;19.95;;;2.92;;
65373;SDS011;52070;53.760;9.678;2023-03-14T02:06:35;14.80;;;3.22;;
65373;SDS011;52070;53.760;9.678;2023-03-14T02:09:09;15.23;;;3.13;;
65373;SDS011;52070;53.760;9.678;2023-03-14T02:11:36;13.43;;;2.80;;
65373;SDS011;52070;53.760;9.678;2023-03-14T02:14:03;12.93;;;2.55;;
65373;SDS011;52070;53.760;9.678;2023-03-14T02:16:31;13.60;;;2.92;;
65373;SDS011;52070;53.760;9.678;2023-03-14T02:18:59;11.27;;;2.13;;
65373;SDS011;52070;53.760;9.678;2023-03-14T02:21:29;16.20;;;2.35;;
65373;SDS011;52070;53.760;9.678;2023-03-14T02:24:08;15.68;;;2.72;;
65373;SDS011;52070;53.760;9.678;2023-03-14T02:26:42;8.30;;;2.03;;
65373;SDS011;52070;53.760;9.678;2023-03-14T02:29:13;14.75;;;2.20;;
65373;SDS011;52070;53.760;9.678;2023-03-14T02:31:40;12.70;;;2.10;;
65373;SDS011;52070;53.760;9.678;2023-03-14T02:34:07;13.43;;;2.47;;
65373;SDS011;52070;53.760;9.678;2023-03-14T02:36:34;15.30;;;3.42;;
65373;SDS011;52070;53.760;9.678;2023-03-14T02:39:04;9.50;;;2.63;;
65373;SDS011;52070;53.760;9.678;2023-03-14T02:41:34;9.45;;;2.60;;
65373;SDS011;52070;53.760;9.678;2023-03-14T02:44:01;9.88;;;2.42;;
65373;SDS011;52070;53.760;9.678;2023-03-14T02:46:30;12.23;;;2.55;;
65373;SDS011;52070;53.760;9.678;2023-03-14T02:48:58;10.43;;;3.00;;
65373;SDS011;52070;53.760;9.678;2023-03-14T02:51:29;6.88;;;2.70;;
65373;SDS011;52070;53.760;9.678;2023-03-14T02:53:56;8.70;;;2.80;;
65373;SDS011;52070;53.760;9.678;2023-03-14T02:56:23;10.98;;;3.35;;
65373;SDS011;52070;53.760;9.678;2023-03-14T02:58:50;7.70;;;2.90;;
65373;SDS011;52070;53.760;9.678;2023-03-14T03:01:17;11.70;;;3.20;;
65373;SDS011;52070;53.760;9.678;2023-03-14T03:03:46;8.73;;;3.00;;
65373;SDS011;52070;53.760;9.678;2023-03-14T03:06:13;10.00;;;3.17;;
65373;SDS011;52070;53.760;9.678;2023-03-14T03:08:40;9.25;;;3.20;;
65373;SDS011;52070;53.760;9.678;2023-03-14T03:11:07;11.23;;;3.72;;
65373;SDS011;52070;53.760;9.678;2023-03-14T03:13:34;12.23;;;3.42;;
65373;SDS011;52070;53.760;9.678;2023-03-14T03:16:01;11.57;;;3.38;;
65373;SDS011;52070;53.760;9.678;2023-03-14T03:18:29;10.27;;;3.40;;
65373;SDS011;52070;53.760;9.678;2023-03-14T03:21:00;14.82;;;3.83;;
65373;SDS011;52070;53.760;9.678;2023-03-14T03:23:28;9.52;;;3.33;;
65373;SDS011;52070;53.760;9.678;2023-03-14T03:25:55;10.98;;;3.20;;
65373;SDS011;52070;53.760;9.678;2023-03-14T03:28:22;12.13;;;3.50;;
65373;SDS011;52070;53.760;9.678;2023-03-14T03:30:49;9.45;;;3.42;;
65373;SDS011;52070;53.760;9.678;2023-03-14T03:33:16;11.30;;;3.70;;
65373;SDS011;52070;53.760;9.678;2023-03-14T03:35:43;7.85;;;3.38;;
65373;SDS011;52070;53.760;9.678;2023-03-14T03:38:13;12.68;;;3.90;;
65373;SDS011;52070;53.760;9.678;2023-03-14T03:40:41;10.55;;;4.13;;
65373;SDS011;52070;53.760;9.678;2023-03-14T03:43:09;10.20;;;4.03;;
65373;SDS011;52070;53.760;9.678;2023-03-14T03:45:36;7.10;;;3.97;;
65373;SDS011;52070;53.760;9.678;2023-03-14T03:48:03;10.85;;;4.07;;
65373;SDS011;52070;53.760;9.678;2023-03-14T03:50:30;14.35;;;4.22;;
65373;SDS011;52070;53.760;9.678;2023-03-14T03:52:57;11.00;;;4.22;;
65373;SDS011;52070;53.760;9.678;2023-03-14T03:55:26;9.02;;;4.20;;
65373;SDS011;52070;53.760;9.678;2023-03-14T03:57:54;9.88;;;3.97;;
65373;SDS011;52070;53.760;9.678;2023-03-14T04:00:21;11.27;;;4.07;;
65373;SDS011;52070;53.760;9.678;2023-03-14T04:02:48;14.88;;;3.90;;
65373;SDS011;52070;53.760;9.678;2023-03-14T04:05:15;10.82;;;3.65;;
65373;SDS011;52070;53.760;9.678;2023-03-14T04:07:42;10.27;;;4.13;;
65373;SDS011;52070;53.760;9.678;2023-03-14T04:10:09;10.23;;;3.83;;
65373;SDS011;52070;53.760;9.678;2023-03-14T04:12:38;11.30;;;3.58;;
65373;SDS011;52070;53.760;9.678;2023-03-14T04:15:05;10.48;;;3.28;;
65373;SDS011;52070;53.760;9.678;2023-03-14T04:17:33;11.32;;;2.40;;
65373;SDS011;52070;53.760;9.678;2023-03-14T04:20:00;5.65;;;1.80;;
65373;SDS011;52070;53.760;9.678;2023-03-14T04:22:28;6.28;;;1.80;;
65373;SDS011;52070;53.760;9.678;2023-03-14T04:24:55;4.47;;;1.02;;
65373;SDS011;52070;53.760;9.678;2023-03-14T04:27:22;8.45;;;1.13;;
65373;SDS011;52070;53.760;9.678;2023-03-14T04:29:50;6.63;;;0.93;;
65373;SDS011;52070;53.760;9.678;2023-03-14T04:32:17;4.18;;;1.00;;
65373;SDS011;52070;53.760;9.678;2023-03-14T04:34:44;5.95;;;1.73;;
65373;SDS011;52070;53.760;9.678;2023-03-14T04:37:12;5.72;;;1.77;;
65373;SDS011;52070;53.760;9.678;2023-03-14T04:39:39;8.68;;;1.58;;
65373;SDS011;52070;53.760;9.678;2023-03-14T04:42:06;7.68;;;1.80;;
65373;SDS011;52070;53.760;9.678;2023-03-14T04:44:33;5.00;;;1.50;;
65373;SDS011;52070;53.760;9.678;2023-03-14T04:47:01;4.05;;;2.28;;
65373;SDS011;52070;53.760;9.678;2023-03-14T04:49:28;6.28;;;1.92;;
65373;SDS011;52070;53.760;9.678;2023-03-14T04:51:55;9.25;;;2.03;;
65373;SDS011;52070;53.760;9.678;2023-03-14T04:54:22;9.77;;;2.10;;
65373;SDS011;52070;53.760;9.678;2023-03-14T04:56:49;5.78;;;1.77;;
65373;SDS011;52070;53.760;9.678;2023-03-14T04:59:16;5.68;;;1.90;;
65373;SDS011;52070;53.760;9.678;2023-03-14T05:01:43;8.43;;;2.05;;
65373;SDS011;52070;53.760;9.678;2023-03-14T05:04:12;8.95;;;2.17;;
65373;SDS011;52070;53.760;9.678;2023-03-14T05:06:39;5.88;;;1.90;;
65373;SDS011;52070;53.760;9.678;2023-03-14T05:09:07;7.88;;;2.20;;
65373;SDS011;52070;53.760;9.678;2023-03-14T05:11:34;7.28;;;1.88;;
65373;SDS011;52070;53.760;9.678;2023-03-14T05:14:01;8.35;;;2.00;;
65373;SDS011;52070;53.760;9.678;2023-03-14T05:16:28;9.52;;;2.30;;
65373;SDS011;52070;53.760;9.678;2023-03-14T05:18:56;12.35;;;2.15;;
65373;SDS011;52070;53.760;9.678;2023-03-14T05:21:24;8.68;;;2.22;;
65373;SDS011;52070;53.760;9.678;2023-03-14T05:23:51;8.18;;;2.00;;
65373;SDS011;52070;53.760;9.678;2023-03-14T05:26:19;11.65;;;2.10;;
65373;SDS011;52070;53.760;9.678;2023-03-14T05:28:45;9.63;;;1.60;;
65373;SDS011;52070;53.760;9.678;2023-03-14T05:31:13;11.00;;;2.42;;
65373;SDS011;52070;53.760;9.678;2023-03-14T05:33:40;4.00;;;1.70;;
65373;SDS011;52070;53.760;9.678;2023-03-14T05:36:07;6.82;;;1.80;;
65373;SDS011;52070;53.760;9.678;2023-03-14T05:38:36;6.32;;;1.90;;
65373;SDS011;52070;53.760;9.678;2023-03-14T05:41:03;5.95;;;1.83;;
65373;SDS011;52070;53.760;9.678;2023-03-14T05:43:31;5.78;;;1.83;;
65373;SDS011;52070;53.760;9.678;2023-03-14T05:45:58;4.82;;;1.98;;
65373;SDS011;52070;53.760;9.678;2023-03-14T05:48:25;4.95;;;1.67;;
65373;SDS011;52070;53.760;9.678;2023-03-14T05:50:54;4.88;;;1.95;;
65373;SDS011;52070;53.760;9.678;2023-03-14T05:53:22;5.43;;;2.10;;
65373;SDS011;52070;53.760;9.678;2023-03-14T05:55:51;7.95;;;2.20;;
65373;SDS011;52070;53.760;9.678;2023-03-14T05:58:19;7.93;;;2.75;;
65373;SDS011;52070;53.760;9.678;2023-03-14T06:00:46;5.60;;;2.10;;
65373;SDS011;52070;53.760;9.678;2023-03-14T06:03:13;10.80;;;2.22;;
65373;SDS011;52070;53.760;9.678;2023-03-14T06:05:40;9.75;;;2.35;;
65373;SDS011;52070;53.760;9.678;2023-03-14T06:08:07;9.15;;;3.05;;
65373;SDS011;52070;53.760;9.678;2023-03-14T06:10:34;4.72;;;2.33;;
65373;SDS011;52070;53.760;9.678;2023-03-14T06:13:03;12.80;;;2.80;;
65373;SDS011;52070;53.760;9.678;2023-03-14T06:15:30;9.50;;;3.22;;
65373;SDS011;52070;53.760;9.678;2023-03-14T06:17:58;10.60;;;2.88;;
65373;SDS011;52070;53.760;9.678;2023-03-14T06:20:25;7.65;;;2.75;;
65373;SDS011;52070;53.760;9.678;2023-03-14T06:22:52;10.18;;;3.20;;
65373;SDS011;52070;53.760;9.678;2023-03-14T06:25:19;11.70;;;3.20;;
65373;SDS011;52070;53.760;9.678;2023-03-14T06:27:46;9.68;;;3.05;;
65373;SDS011;52070;53.760;9.678;2023-03-14T06:30:15;6.35;;;2.20;;
65373;SDS011;52070;53.760;9.678;2023-03-14T06:32:42;10.48;;;2.45;;
65373;SDS011;52070;53.760;9.678;2023-03-14T06:35:09;5.38;;;2.30;;
65373;SDS011;52070;53.760;9.678;2023-03-14T06:37:36;8.05;;;2.42;;
65373;SDS011;52070;53.760;9.678;2023-03-14T06:40:04;8.68;;;2.45;;
65373;SDS011;52070;53.760;9.678;2023-03-14T06:42:32;9.65;;;2.17;;
65373;SDS011;52070;53.760;9.678;2023-03-14T06:44:59;9.38;;;2.08;;
65373;SDS011;52070;53.760;9.678;2023-03-14T06:47:28;12.45;;;2.00;;
65373;SDS011;52070;53.760;9.678;2023-03-14T06:49:55;5.00;;;1.75;;
65373;SDS011;52070;53.760;9.678;2023-03-14T06:52:22;4.43;;;1.83;;
65373;SDS011;52070;53.760;9.678;2023-03-14T06:54:49;6.25;;;1.90;;
65373;SDS011;52070;53.760;9.678;2023-03-14T06:57:16;14.70;;;2.00;;
65373;SDS011;52070;53.760;9.678;2023-03-14T06:59:43;5.53;;;1.85;;
65373;SDS011;52070;53.760;9.678;2023-03-14T07:02:10;7.40;;;2.20;;
65373;SDS011;52070;53.760;9.678;2023-03-14T07:04:38;6.88;;;1.80;;
65373;SDS011;52070;53.760;9.678;2023-03-14T07:07:06;8.45;;;1.80;;
65373;SDS011;52070;53.760;9.678;2023-03-14T07:09:34;5.97;;;1.88;;
65373;SDS011;52070;53.760;9.678;2023-03-14T07:12:02;9.15;;;2.67;;
65373;SDS011;52070;53.760;9.678;2023-03-14T07:14:30;9.10;;;1.83;;
65373;SDS011;52070;53.760;9.678;2023-03-14T07:16:57;6.30;;;1.80;;
65373;SDS011;52070;53.760;9.678;2023-03-14T07:19:24;9.00;;;2.08;;
65373;SDS011;52070;53.760;9.678;2023-03-14T07:21:52;5.97;;;2.05;;
65373;SDS011;52070;53.760;9.678;2023-03-14T07:24:19;9.50;;;2.65;;
65373;SDS011;52070;53.760;9.678;2023-03-14T07:26:46;5.43;;;2.60;;
65373;SDS011;52070;53.760;9.678;2023-03-14T07:29:13;14.57;;;2.50;;
65373;SDS011;52070;53.760;9.678;2023-03-14T07:31:41;11.57;;;2.30;;
65373;SDS011;52070;53.760;9.678;2023-03-14T07:34:08;8.07;;;2.25;;
65373;SDS011;52070;53.760;9.678;2023-03-14T07:36:35;10.05;;;2.40;;
65373;SDS011;52070;53.760;9.678;2023-03-14T07:39:03;10.80;;;2.47;;
65373;SDS011;52070;53.760;9.678;2023-03-14T07:41:31;8.85;;;2.08;;
65373;SDS011;52070;53.760;9.678;2023-03-14T07:43:58;8.07;;;2.20;;
65373;SDS011;52070;53.760;9.678;2023-03-14T07:46:25;8.57;;;1.52;;
65373;SDS011;52070;53.760;9.678;2023-03-14T07:48:52;11.55;;;2.28;;
65373;SDS011;52070;53.760;9.678;2023-03-14T07:51:20;8.15;;;1.73;;
65373;SDS011;52070;53.760;9.678;2023-03-14T07:53:47;8.48;;;2.08;;
65373;SDS011;52070;53.760;9.678;2023-03-14T07:56:15;6.38;;;2.00;;
65373;SDS011;52070;53.760;9.678;2023-03-14T07:58:42;9.98;;;2.42;;
65373;SDS011;52070;53.760;9.678;2023-03-14T08:01:09;10.50;;;2.10;;
65373;SDS011;52070;53.760;9.678;2023-03-14T08:03:36;6.07;;;1.98;;
65373;SDS011;52070;53.760;9.678;2023-03-14T08:06:04;7.07;;;2.20;;
65373;SDS011;52070;53.760;9.678;2023-03-14T08:08:31;11.23;;;2.13;;
65373;SDS011;52070;53.760;9.678;2023-03-14T08:11:02;7.85;;;2.17;;
65373;SDS011;52070;53.760;9.678;2023-03-14T08:13:30;9.73;;;2.28;;
65373;SDS011;52070;53.760;9.678;2023-03-14T08:15:58;9.07;;;2.30;;
65373;SDS011;52070;53.760;9.678;2023-03-14T08:18:25;11.43;;;2.35;;
65373;SDS011;52070;53.760;9.678;2023-03-14T08:20:52;10.20;;;2.47;;
65373;SDS011;52070;53.760;9.678;2023-03-14T08:23:19;10.70;;;2.65;;
65373;SDS011;52070;53.760;9.678;2023-03-14T08:25:47;12.82;;;2.22;;
65373;SDS011;52070;53.760;9.678;2023-03-14T08:28:15;9.15;;;2.60;;
65373;SDS011;52070;53.760;9.678;2023-03-14T08:30:44;7.38;;;2.33;;
65373;SDS011;52070;53.760;9.678;2023-03-14T08:33:11;10.02;;;2.58;;
65373;SDS011;52070;53.760;9.678;2023-03-14T08:35:38;8.65;;;2.72;;
65373;SDS011;52070;53.760;9.678;2023-03-14T08:38:05;5.78;;;2.58;;
65373;SDS011;52070;53.760;9.678;2023-03-14T08:40:32;9.70;;;2.53;;
65373;SDS011;52070;53.760;9.678;2023-03-14T08:42:59;10.38;;;2.67;;
65373;SDS011;52070;53.760;9.678;2023-03-14T08:45:26;11.70;;;2.78;;
65373;SDS011;52070;53.760;9.678;2023-03-14T08:47:54;8.48;;;2.58;;
65373;SDS011;52070;53.760;9.678;2023-03-14T08:50:21;9.15;;;2.65;;
65373;SDS011;52070;53.760;9.678;2023-03-14T08:52:49;12.35;;;2.70;;
65373;SDS011;52070;53.760;9.678;2023-03-14T08:55:16;9.38;;;2.70;;
65373;SDS011;52070;53.760;9.678;2023-03-14T08:57:44;9.45;;;3.20;;
65373;SDS011;52070;53.760;9.678;2023-03-14T09:00:11;11.35;;;3.10;;
65373;SDS011;52070;53.760;9.678;2023-03-14T09:02:39;9.18;;;3.15;;
65373;SDS011;52070;53.760;9.678;2023-03-14T09:05:09;13.77;;;3.42;;
65373;SDS011;52070;53.760;9.678;2023-03-14T09:07:37;8.90;;;4.00;;
65373;SDS011;52070;53.760;9.678;2023-03-14T09:10:04;6.53;;;3.22;;
65373;SDS011;52070;53.760;9.678;2023-03-14T09:12:32;13.68;;;4.10;;
65373;SDS011;52070;53.760;9.678;2023-03-14T09:14:59;6.82;;;3.33;;
65373;SDS011;52070;53.760;9.678;2023-03-14T09:17:26;4.88;;;1.33;;
65373;SDS011;52070;53.760;9.678;2023-03-14T09:19:53;4.03;;;1.02;;
65373;SDS011;52070;53.760;9.678;2023-03-14T09:22:21;5.55;;;1.25;;
65373;SDS011;52070;53.760;9.678;2023-03-14T09:24:48;8.55;;;1.30;;
65373;SDS011;52070;53.760;9.678;2023-03-14T09:27:15;2.40;;;1.10;;
65373;SDS011;52070;53.760;9.678;2023-03-14T09:29:42;7.22;;;1.52;;
65373;SDS011;52070;53.760;9.678;2023-03-14T09:32:10;5.35;;;1.13;;
65373;SDS011;52070;53.760;9.678;2023-03-14T09:34:37;4.97;;;1.10;;
65373;SDS011;52070;53.760;9.678;2023-03-14T09:37:03;3.78;;;1.00;;
65373;SDS011;52070;53.760;9.678;2023-03-14T09:39:32;6.95;;;1.40;;
65373;SDS011;52070;53.760;9.678;2023-03-14T09:42:00;2.67;;;1.02;;
65373;SDS011;52070;53.760;9.678;2023-03-14T09:44:31;2.03;;;0.77;;
65373;SDS011;52070;53.760;9.678;2023-03-14T09:47:03;3.78;;;0.85;;
65373;SDS011;52070;53.760;9.678;2023-03-14T09:49:33;3.50;;;0.75;;
65373;SDS011;52070;53.760;9.678;2023-03-14T09:52:04;5.53;;;1.20;;
65373;SDS011;52070;53.760;9.678;2023-03-14T09:54:39;2.30;;;0.80;;
65373;SDS011;52070;53.760;9.678;2023-03-14T09:57:11;5.22;;;0.80;;
65373;SDS011;52070;53.760;9.678;2023-03-14T09:59:40;3.30;;;0.57;;
65373;SDS011;52070;53.760;9.678;2023-03-14T10:02:14;2.13;;;0.65;;
65373;SDS011;52070;53.760;9.678;2023-03-14T10:04:44;2.35;;;0.50;;
65373;SDS011;52070;53.760;9.678;2023-03-14T10:07:12;1.10;;;0.50;;
65373;SDS011;52070;53.760;9.678;2023-03-14T10:09:44;0.30;;;0.30;;
65373;SDS011;52070;53.760;9.678;2023-03-14T10:12:11;3.65;;;0.50;;
65373;SDS011;52070;53.760;9.678;2023-03-14T10:14:44;1.17;;;0.50;;
65373;SDS011;52070;53.760;9.678;2023-03-14T10:17:13;0.60;;;0.50;;
65373;SDS011;52070;53.760;9.678;2023-03-14T10:19:50;1.05;;;0.32;;
65373;SDS011;52070;53.760;9.678;2023-03-14T10:22:18;2.38;;;0.60;;
65373;SDS011;52070;53.760;9.678;2023-03-14T10:24:49;1.95;;;0.50;;
65373;SDS011;52070;53.760;9.678;2023-03-14T10:27:19;0.40;;;0.40;;
65373;SDS011;52070;53.760;9.678;2023-03-14T10:29:52;1.20;;;0.50;;
65373;SDS011;52070;53.760;9.678;2023-03-14T10:32:21;2.28;;;0.30;;
65373;SDS011;52070;53.760;9.678;2023-03-14T10:35:04;0.38;;;0.25;;
65373;SDS011;52070;53.760;9.678;2023-03-14T10:37:34;0.70;;;0.50;;
65373;SDS011;52070;53.760;9.678;2023-03-14T10:40:03;3.25;;;0.60;;
65373;SDS011;52070;53.760;9.678;2023-03-14T10:42:39;2.15;;;0.77;;
65373;SDS011;52070;53.760;9.678;2023-03-14T10:45:21;1.65;;;0.35;;
65373;SDS011;52070;53.760;9.678;2023-03-14T10:47:54;3.25;;;0.60;;
65373;SDS011;52070;53.760;9.678;2023-03-14T10:50:23;3.22;;;0.73;;
65373;SDS011;52070;53.760;9.678;2023-03-14T10:52:51;0.30;;;0.30;;
65373;SDS011;52070;53.760;9.678;2023-03-14T10:55:20;3.25;;;0.45;;
65373;SDS011;52070;53.760;9.678;2023-03-14T10:57:47;5.18;;;0.80;;
65373;SDS011;52070;53.760;9.678;2023-03-14T11:00:15;4.38;;;1.08;;
65373;SDS011;52070;53.760;9.678;2023-03-14T11:05:40;3.50;;;0.70;;
65373;SDS011;52070;53.760;9.678;2023-03-14T11:11:23;5.70;;;0.80;;
65373;SDS011;52070;53.760;9.678;2023-03-14T11:13:58;9.07;;;1.20;;
65373;SDS011;52070;53.760;9.678;2023-03-14T11:16:33;6.85;;;1.42;;
65373;SDS011;52070;53.760;9.678;2023-03-14T11:22:20;7.38;;;1.05;;
65373;SDS011;52070;53.760;9.678;2023-03-14T11:30:18;4.30;;;0.75;;
65373;SDS011;52070;53.760;9.678;2023-03-14T11:32:49;6.18;;;1.00;;
65373;SDS011;52070;53.760;9.678;2023-03-14T11:35:22;5.78;;;1.25;;
65373;SDS011;52070;53.760;9.678;2023-03-14T11:37:54;3.63;;;0.82;;
65373;SDS011;52070;53.760;9.678;2023-03-14T11:40:26;9.40;;;1.13;;
65373;SDS011;52070;53.760;9.678;2023-03-14T11:43:04;12.27;;;1.17;;
65373;SDS011;52070;53.760;9.678;2023-03-14T11:45:48;8.10;;;1.42;;
65373;SDS011;52070;53.760;9.678;2023-03-14T11:48:34;10.77;;;1.48;;
65373;SDS011;52070;53.760;9.678;2023-03-14T11:51:44;7.90;;;1.17;;
65373;SDS011;52070;53.760;9.678;2023-03-14T11:54:55;14.15;;;1.63;;
65373;SDS011;52070;53.760;9.678;2023-03-14T12:00:24;12.38;;;1.70;;
65373;SDS011;52070;53.760;9.678;2023-03-14T12:02:53;15.00;;;1.50;;
65373;SDS011;52070;53.760;9.678;2023-03-14T12:13:33;9.00;;;1.65;;
65373;SDS011;52070;53.760;9.678;2023-03-14T12:19:14;6.72;;;1.20;;
65373;SDS011;52070;53.760;9.678;2023-03-14T12:21:52;16.60;;;1.58;;
65373;SDS011;52070;53.760;9.678;2023-03-14T12:24:24;12.45;;;1.50;;
65373;SDS011;52070;53.760;9.678;2023-03-14T12:26:55;13.43;;;2.10;;
65373;SDS011;52070;53.760;9.678;2023-03-14T12:29:23;16.77;;;1.70;;
65373;SDS011;52070;53.760;9.678;2023-03-14T12:34:44;14.95;;;1.85;;
65373;SDS011;52070;53.760;9.678;2023-03-14T12:37:17;14.32;;;2.15;;
65373;SDS011;52070;53.760;9.678;2023-03-14T12:39:55;25.02;;;2.38;;
65373;SDS011;52070;53.760;9.678;2023-03-14T12:42:43;19.27;;;2.30;;
65373;SDS011;52070;53.760;9.678;2023-03-14T12:45:24;15.93;;;1.77;;
65373;SDS011;52070;53.760;9.678;2023-03-14T12:48:00;11.27;;;1.40;;
65373;SDS011;52070;53.760;9.678;2023-03-14T12:50:40;12.07;;;1.58;;
65373;SDS011;52070;53.760;9.678;2023-03-14T12:53:20;17.35;;;2.40;;
65373;SDS011;52070;53.760;9.678;2023-03-14T12:56:06;11.63;;;2.05;;
65373;SDS011;52070;53.760;9.678;2023-03-14T12:58:42;10.02;;;1.55;;
65373;SDS011;52070;53.760;9.678;2023-03-14T13:01:15;7.90;;;1.63;;
65373;SDS011;52070;53.760;9.678;2023-03-14T13:03:45;11.30;;;1.98;;
65373;SDS011;52070;53.760;9.678;2023-03-14T13:06:15;11.43;;;1.33;;
65373;SDS011;52070;53.760;9.678;2023-03-14T13:09:35;13.80;;;1.73;;
65373;SDS011;52070;53.760;9.678;2023-03-14T13:12:25;7.45;;;1.52;;
65373;SDS011;52070;53.760;9.678;2023-03-14T13:14:58;6.43;;;1.00;;
65373;SDS011;52070;53.760;9.678;2023-03-14T13:17:30;15.90;;;1.83;;
65373;SDS011;52070;53.760;9.678;2023-03-14T13:20:00;8.25;;;1.10;;
65373;SDS011;52070;53.760;9.678;2023-03-14T13:22:33;14.23;;;1.50;;
65373;SDS011;52070;53.760;9.678;2023-03-14T13:25:05;10.70;;;1.20;;
65373;SDS011;52070;53.760;9.678;2023-03-14T13:27:34;13.13;;;1.67;;
65373;SDS011;52070;53.760;9.678;2023-03-14T13:30:05;14.95;;;1.60;;
65373;SDS011;52070;53.760;9.678;2023-03-14T13:32:46;13.68;;;1.67;;
65373;SDS011;52070;53.760;9.678;2023-03-14T13:35:15;7.15;;;1.23;;
65373;SDS011;52070;53.760;9.678;2023-03-14T13:37:45;12.43;;;2.00;;
65373;SDS011;52070;53.760;9.678;2023-03-14T13:40:20;16.75;;;2.30;;
65373;SDS011;52070;53.760;9.678;2023-03-14T13:42:59;14.20;;;1.77;;
65373;SDS011;52070;53.760;9.678;2023-03-14T13:45:30;7.35;;;1.40;;
65373;SDS011;52070;53.760;9.678;2023-03-14T13:47:57;11.32;;;1.60;;
65373;SDS011;52070;53.760;9.678;2023-03-14T13:50:24;10.95;;;1.42;;
65373;SDS011;52070;53.760;9.678;2023-03-14T13:52:56;12.85;;;1.90;;
65373;SDS011;52070;53.760;9.678;2023-03-14T13:55:27;13.80;;;1.60;;
65373;SDS011;52070;53.760;9.678;2023-03-14T13:57:56;4.38;;;1.10;;
65373;SDS011;52070;53.760;9.678;2023-03-14T14:00:25;5.57;;;1.15;;
65373;SDS011;52070;53.760;9.678;2023-03-14T14:02:53;13.57;;;2.00;;
65373;SDS011;52070;53.760;9.678;2023-03-14T14:05:21;8.15;;;1.50;;
65373;SDS011;52070;53.760;9.678;2023-03-14T14:07:49;8.70;;;1.67;;
65373;SDS011;52070;53.760;9.678;2023-03-14T14:10:18;10.88;;;1.30;;
65373;SDS011;52070;53.760;9.678;2023-03-14T14:12:46;8.40;;;1.50;;
65373;SDS011;52070;53.760;9.678;2023-03-14T14:15:18;6.85;;;1.42;;
65373;SDS011;52070;53.760;9.678;2023-03-14T14:17:49;18.60;;;1.73;;
65373;SDS011;52070;53.760;9.678;2023-03-14T14:20:20;8.32;;;1.33;;
65373;SDS011;52070;53.760;9.678;2023-03-14T14:22:50;7.35;;;1.05;;
65373;SDS011;52070;53.760;9.678;2023-03-14T14:25:19;5.53;;;1.50;;
65373;SDS011;52070;53.760;9.678;2023-03-14T14:27:47;9.77;;;1.45;;
65373;SDS011;52070;53.760;9.678;2023-03-14T14:30:25;7.00;;;1.50;;
65373;SDS011;52070;53.760;9.678;2023-03-14T14:33:09;7.60;;;1.10;;
65373;SDS011;52070;53.760;9.678;2023-03-14T14:35:39;11.65;;;1.55;;
65373;SDS011;52070;53.760;9.678;2023-03-14T14:38:10;12.63;;;1.60;;
65373;SDS011;52070;53.760;9.678;2023-03-14T14:40:44;13.70;;;1.40;;
65373;SDS011;52070;53.760;9.678;2023-03-14T14:43:14;9.85;;;1.77;;
65373;SDS011;52070;53.760;9.678;2023-03-14T14:45:48;12.95;;;1.73;;
65373;SDS011;52070;53.760;9.678;2023-03-14T14:48:21;13.43;;;1.60;;
65373;SDS011;52070;53.760;9.678;2023-03-14T14:50:50;12.57;;;1.70;;
65373;SDS011;52070;53.760;9.678;2023-03-14T14:53:23;11.15;;;1.67;;
65373;SDS011;52070;53.760;9.678;2023-03-14T14:55:57;6.68;;;1.52;;
65373;SDS011;52070;53.760;9.678;2023-03-14T14:58:26;9.75;;;1.70;;
65373;SDS011;52070;53.760;9.678;2023-03-14T15:00:56;11.68;;;1.65;;
65373;SDS011;52070;53.760;9.678;2023-03-14T15:05:53;11.00;;;1.90;;
65373;SDS011;52070;53.760;9.678;2023-03-14T15:08:35;8.95;;;1.60;;
65373;SDS011;52070;53.760;9.678;2023-03-14T15:11:05;9.60;;;1.80;;
65373;SDS011;52070;53.760;9.678;2023-03-14T15:13:38;10.05;;;1.70;;
65373;SDS011;52070;53.760;9.678;2023-03-14T15:16:08;7.13;;;1.58;;
65373;SDS011;52070;53.760;9.678;2023-03-14T15:18:37;11.98;;;1.33;;
65373;SDS011;52070;53.760;9.678;2023-03-14T15:21:04;12.85;;;1.30;;
65373;SDS011;52070;53.760;9.678;2023-03-14T15:23:31;11.52;;;1.48;;
65373;SDS011;52070;53.760;9.678;2023-03-14T15:25:58;10.43;;;1.50;;
65373;SDS011;52070;53.760;9.678;2023-03-14T15:28:27;8.23;;;1.38;;